sensor_id;sensor_type;location;lat;lon;timestamp;temperature;humidity
30300;DHT22;17110;52.602;12.998;2022-08-04T00:00:39;19.80;99.90
30300;DHT22;17110;52.602;12.998;2022-08-04T00:03:10;19.70;99.90
30300;DHT22;17110;52.602;12.998;2022-08-04T00:11:04;19.60;99.90
30300;DHT22;17110;52.602;12.998;2022-08-04T00:13:34;19.60;99.90
30300;DHT22;17110;52.602;12.998;2022-08-04T00:16:07;19.60;99.90
30300;DHT22;17110;52.602;12.998;2022-08-04T00:21:04;19.60;99.90
30300;DHT22;17110;52.602;12.998;2022-08-04T00:23:35;19.50;99.90
30300;DHT22;17110;52.602;12.998;2022-08-04T00:26:03;19.50;99.90
30300;DHT22;17110;52.602;12.998;2022-08-04T00:28:29;19.40;99.90
30300;DHT22;17110;52.602;12.998;2022-08-04T00:30:55;19.40;99.90
30300;DHT22;17110;52.602;12.998;2022-08-04T00:33:21;19.30;99.90
30300;DHT22;17110;52.602;12.998;2022-08-04T00:35:48;19.40;99.90
30300;DHT22;17110;52.602;12.998;2022-08-04T00:38:16;19.30;99.90
30300;DHT22;17110;52.602;12.998;2022-08-04T01:00:11;19.10;99.90
30300;DHT22;17110;52.602;12.998;2022-08-04T01:03:13;19.10;99.90
30300;DHT22;17110;52.602;12.998;2022-08-04T01:08:47;19.00;99.90
30300;DHT22;17110;52.602;12.998;2022-08-04T01:11:44;19.00;99.90
30300;DHT22;17110;52.602;12.998;2022-08-04T01:14:28;19.00;99.90
30300;DHT22;17110;52.602;12.998;2022-08-04T01:30:31;18.80;99.90
30300;DHT22;17110;52.602;12.998;2022-08-04T01:33:08;18.70;99.90
30300;DHT22;17110;52.602;12.998;2022-08-04T01:35:39;18.60;99.90
30300;DHT22;17110;52.602;12.998;2022-08-04T01:38:20;18.60;99.90
30300;DHT22;17110;52.602;12.998;2022-08-04T01:40:51;18.60;99.90
30300;DHT22;17110;52.602;12.998;2022-08-04T01:43:19;18.50;99.90
30300;DHT22;17110;52.602;12.998;2022-08-04T01:45:49;18.60;99.90
30300;DHT22;17110;52.602;12.998;2022-08-04T01:48:17;18.60;99.90
30300;DHT22;17110;52.602;12.998;2022-08-04T01:50:43;18.60;99.90
30300;DHT22;17110;52.602;12.998;2022-08-04T01:53:10;18.60;99.90
30300;DHT22;17110;52.602;12.998;2022-08-04T01:55:37;18.60;99.90
30300;DHT22;17110;52.602;12.998;2022-08-04T01:58:04;18.50;99.90
30300;DHT22;17110;52.602;12.998;2022-08-04T03:18:00;18.10;99.90
30300;DHT22;17110;52.602;12.998;2022-08-04T03:21:06;18.10;99.90
30300;DHT22;17110;52.602;12.998;2022-08-04T03:41:16;17.90;99.90
30300;DHT22;17110;52.602;12.998;2022-08-04T03:55:45;17.90;99.90
30300;DHT22;17110;52.602;12.998;2022-08-04T04:09:08;18.10;99.90
30300;DHT22;17110;52.602;12.998;2022-08-04T04:20:24;18.30;99.90
30300;DHT22;17110;52.602;12.998;2022-08-04T04:23:50;18.30;99.90
30300;DHT22;17110;52.602;12.998;2022-08-04T04:26:22;18.40;99.90
30300;DHT22;17110;52.602;12.998;2022-08-04T04:31:50;18.60;99.90
30300;DHT22;17110;52.602;12.998;2022-08-04T04:37:31;18.60;99.90
30300;DHT22;17110;52.602;12.998;2022-08-04T04:40:16;18.60;99.90
30300;DHT22;17110;52.602;12.998;2022-08-04T04:48:53;18.90;99.90
30300;DHT22;17110;52.602;12.998;2022-08-04T04:54:28;19.30;99.90
30300;DHT22;17110;52.602;12.998;2022-08-04T04:57:19;19.40;99.90
30300;DHT22;17110;52.602;12.998;2022-08-04T05:08:18;20.60;99.90
30300;DHT22;17110;52.602;12.998;2022-08-04T05:16:01;21.60;99.90
30300;DHT22;17110;52.602;12.998;2022-08-04T05:18:30;21.80;99.90
30300;DHT22;17110;52.602;12.998;2022-08-04T05:22:07;21.80;99.90
30300;DHT22;17110;52.602;12.998;2022-08-04T05:24:14;21.90;99.90
30300;DHT22;17110;52.602;12.998;2022-08-04T05:26:58;22.00;99.90
30300;DHT22;17110;52.602;12.998;2022-08-04T05:29:32;22.10;99.90
30300;DHT22;17110;52.602;12.998;2022-08-04T05:32:01;22.20;99.90
30300;DHT22;17110;52.602;12.998;2022-08-04T05:34:34;22.30;99.90
30300;DHT22;17110;52.602;12.998;2022-08-04T05:37:07;22.30;99.90
30300;DHT22;17110;52.602;12.998;2022-08-04T05:39:38;22.50;99.90
30300;DHT22;17110;52.602;12.998;2022-08-04T05:42:06;22.60;99.90
30300;DHT22;17110;52.602;12.998;2022-08-04T05:44:35;22.80;99.90
30300;DHT22;17110;52.602;12.998;2022-08-04T05:47:02;23.10;99.90
30300;DHT22;17110;52.602;12.998;2022-08-04T05:49:28;23.40;99.90
30300;DHT22;17110;52.602;12.998;2022-08-04T05:51:57;23.50;99.90
30300;DHT22;17110;52.602;12.998;2022-08-04T05:54:24;23.70;99.90
30300;DHT22;17110;52.602;12.998;2022-08-04T05:56:50;23.80;99.90
30300;DHT22;17110;52.602;12.998;2022-08-04T05:59:18;24.00;99.90
30300;DHT22;17110;52.602;12.998;2022-08-04T06:01:45;24.20;99.90
30300;DHT22;17110;52.602;12.998;2022-08-04T06:04:13;24.30;99.90
30300;DHT22;17110;52.602;12.998;2022-08-04T06:06:41;24.30;99.90
30300;DHT22;17110;52.602;12.998;2022-08-04T06:09:08;24.30;99.90
30300;DHT22;17110;52.602;12.998;2022-08-04T06:11:37;24.50;99.90
30300;DHT22;17110;52.602;12.998;2022-08-04T06:14:08;24.60;99.90
30300;DHT22;17110;52.602;12.998;2022-08-04T06:16:40;24.70;99.90
30300;DHT22;17110;52.602;12.998;2022-08-04T06:19:12;24.80;99.90
30300;DHT22;17110;52.602;12.998;2022-08-04T06:21:43;24.90;99.90
30300;DHT22;17110;52.602;12.998;2022-08-04T06:24:13;25.10;99.90
30300;DHT22;17110;52.602;12.998;2022-08-04T06:26:41;25.30;99.90
30300;DHT22;17110;52.602;12.998;2022-08-04T06:29:09;25.50;99.90
30300;DHT22;17110;52.602;12.998;2022-08-04T06:31:44;25.70;99.90
30300;DHT22;17110;52.602;12.998;2022-08-04T06:34:15;25.90;99.90
30300;DHT22;17110;52.602;12.998;2022-08-04T06:36:41;26.00;99.90
30300;DHT22;17110;52.602;12.998;2022-08-04T06:39:09;26.20;99.90
30300;DHT22;17110;52.602;12.998;2022-08-04T06:41:35;26.50;99.90
30300;DHT22;17110;52.602;12.998;2022-08-04T06:44:05;26.90;99.90
30300;DHT22;17110;52.602;12.998;2022-08-04T06:46:33;27.50;99.90
30300;DHT22;17110;52.602;12.998;2022-08-04T06:49:00;28.10;99.90
30300;DHT22;17110;52.602;12.998;2022-08-04T06:51:27;28.70;99.90
30300;DHT22;17110;52.602;12.998;2022-08-04T06:53:55;29.30;99.90
30300;DHT22;17110;52.602;12.998;2022-08-04T06:56:21;29.90;98.20
30300;DHT22;17110;52.602;12.998;2022-08-04T06:58:50;30.30;97.90
30300;DHT22;17110;52.602;12.998;2022-08-04T07:01:18;30.60;96.40
30300;DHT22;17110;52.602;12.998;2022-08-04T07:03:45;30.80;95.20
30300;DHT22;17110;52.602;12.998;2022-08-04T07:06:11;31.10;94.70
30300;DHT22;17110;52.602;12.998;2022-08-04T07:08:38;31.30;93.20
30300;DHT22;17110;52.602;12.998;2022-08-04T07:11:04;31.40;94.10
30300;DHT22;17110;52.602;12.998;2022-08-04T07:13:31;31.50;94.00
30300;DHT22;17110;52.602;12.998;2022-08-04T07:15:58;31.50;93.30
30300;DHT22;17110;52.602;12.998;2022-08-04T07:18:24;31.60;92.80
30300;DHT22;17110;52.602;12.998;2022-08-04T07:20:53;31.60;92.80
30300;DHT22;17110;52.602;12.998;2022-08-04T07:23:24;31.70;92.90
30300;DHT22;17110;52.602;12.998;2022-08-04T07:25:52;31.80;92.90
30300;DHT22;17110;52.602;12.998;2022-08-04T07:28:19;31.80;92.40
30300;DHT22;17110;52.602;12.998;2022-08-04T07:30:47;31.90;92.40
30300;DHT22;17110;52.602;12.998;2022-08-04T07:33:17;31.90;91.10
30300;DHT22;17110;52.602;12.998;2022-08-04T07:35:45;32.00;90.80
30300;DHT22;17110;52.602;12.998;2022-08-04T07:38:12;32.00;91.40
30300;DHT22;17110;52.602;12.998;2022-08-04T07:40:38;32.00;91.30
30300;DHT22;17110;52.602;12.998;2022-08-04T07:43:05;32.20;90.10
30300;DHT22;17110;52.602;12.998;2022-08-04T07:45:31;32.20;91.40
30300;DHT22;17110;52.602;12.998;2022-08-04T07:47:57;32.20;90.30
30300;DHT22;17110;52.602;12.998;2022-08-04T07:50:24;32.30;90.90
30300;DHT22;17110;52.602;12.998;2022-08-04T07:52:50;32.40;90.20
30300;DHT22;17110;52.602;12.998;2022-08-04T07:55:17;32.50;90.00
30300;DHT22;17110;52.602;12.998;2022-08-04T07:57:43;32.60;86.50
30300;DHT22;17110;52.602;12.998;2022-08-04T08:00:10;32.60;88.00
30300;DHT22;17110;52.602;12.998;2022-08-04T08:02:38;32.70;89.70
30300;DHT22;17110;52.602;12.998;2022-08-04T08:05:05;32.90;84.90
30300;DHT22;17110;52.602;12.998;2022-08-04T08:07:32;33.00;82.60
30300;DHT22;17110;52.602;12.998;2022-08-04T08:09:58;33.10;83.30
30300;DHT22;17110;52.602;12.998;2022-08-04T08:12:24;33.10;82.00
30300;DHT22;17110;52.602;12.998;2022-08-04T08:14:51;33.30;82.00
30300;DHT22;17110;52.602;12.998;2022-08-04T08:17:16;33.40;80.90
30300;DHT22;17110;52.602;12.998;2022-08-04T08:19:42;33.50;80.40
30300;DHT22;17110;52.602;12.998;2022-08-04T08:22:09;33.50;78.30
30300;DHT22;17110;52.602;12.998;2022-08-04T08:24:35;33.60;78.40
30300;DHT22;17110;52.602;12.998;2022-08-04T08:27:02;33.70;78.60
30300;DHT22;17110;52.602;12.998;2022-08-04T08:29:32;33.80;79.60
30300;DHT22;17110;52.602;12.998;2022-08-04T08:31:59;33.80;80.20
30300;DHT22;17110;52.602;12.998;2022-08-04T08:34:26;33.90;79.60
30300;DHT22;17110;52.602;12.998;2022-08-04T08:37:30;34.00;77.70
30300;DHT22;17110;52.602;12.998;2022-08-04T08:43:09;34.20;78.60
30300;DHT22;17110;52.602;12.998;2022-08-04T08:48:55;34.30;75.90
30300;DHT22;17110;52.602;12.998;2022-08-04T08:51:32;34.30;73.90
30300;DHT22;17110;52.602;12.998;2022-08-04T08:54:34;34.40;74.00
30300;DHT22;17110;52.602;12.998;2022-08-04T09:00:10;34.60;70.60
30300;DHT22;17110;52.602;12.998;2022-08-04T09:05:50;34.60;71.10
30300;DHT22;17110;52.602;12.998;2022-08-04T09:10:49;34.70;73.10
30300;DHT22;17110;52.602;12.998;2022-08-04T09:13:25;34.80;72.40
30300;DHT22;17110;52.602;12.998;2022-08-04T09:16:06;34.80;73.40
30300;DHT22;17110;52.602;12.998;2022-08-04T09:18:41;34.90;72.30
30300;DHT22;17110;52.602;12.998;2022-08-04T11:07:12;36.10;64.70
30300;DHT22;17110;52.602;12.998;2022-08-04T11:09:39;36.20;63.30
30300;DHT22;17110;52.602;12.998;2022-08-04T11:12:18;36.20;63.50
30300;DHT22;17110;52.602;12.998;2022-08-04T11:14:55;36.40;63.20
30300;DHT22;17110;52.602;12.998;2022-08-04T11:17:30;36.50;63.30
30300;DHT22;17110;52.602;12.998;2022-08-04T11:22:51;36.50;61.40
30300;DHT22;17110;52.602;12.998;2022-08-04T11:25:23;36.40;61.00
30300;DHT22;17110;52.602;12.998;2022-08-04T11:28:10;36.30;62.50
30300;DHT22;17110;52.602;12.998;2022-08-04T11:38:46;36.10;62.30
30300;DHT22;17110;52.602;12.998;2022-08-04T11:41:39;36.10;60.40
30300;DHT22;17110;52.602;12.998;2022-08-04T11:44:11;36.00;61.70
30300;DHT22;17110;52.602;12.998;2022-08-04T11:46:43;36.00;62.30
30300;DHT22;17110;52.602;12.998;2022-08-04T11:49:34;36.00;61.80
30300;DHT22;17110;52.602;12.998;2022-08-04T11:52:06;36.00;62.10
30300;DHT22;17110;52.602;12.998;2022-08-04T11:54:34;36.10;61.70
30300;DHT22;17110;52.602;12.998;2022-08-04T11:57:02;36.20;61.30
30300;DHT22;17110;52.602;12.998;2022-08-04T11:59:31;36.30;62.00
30300;DHT22;17110;52.602;12.998;2022-08-04T12:02:16;36.30;62.60
30300;DHT22;17110;52.602;12.998;2022-08-04T12:04:54;36.30;63.00
30300;DHT22;17110;52.602;12.998;2022-08-04T12:16:50;36.80;61.10
30300;DHT22;17110;52.602;12.998;2022-08-04T12:18:57;36.80;62.30
30300;DHT22;17110;52.602;12.998;2022-08-04T12:21:40;36.80;62.40
30300;DHT22;17110;52.602;12.998;2022-08-04T12:24:21;36.90;62.50
30300;DHT22;17110;52.602;12.998;2022-08-04T12:27:06;36.90;62.30
30300;DHT22;17110;52.602;12.998;2022-08-04T12:29:33;37.00;62.10
30300;DHT22;17110;52.602;12.998;2022-08-04T12:32:06;36.90;61.80
30300;DHT22;17110;52.602;12.998;2022-08-04T12:34:42;36.80;61.70
30300;DHT22;17110;52.602;12.998;2022-08-04T12:37:57;36.70;62.20
30300;DHT22;17110;52.602;12.998;2022-08-04T12:40:00;36.50;61.20
30300;DHT22;17110;52.602;12.998;2022-08-04T12:42:35;36.60;60.70
30300;DHT22;17110;52.602;12.998;2022-08-04T12:45:07;36.50;62.10
30300;DHT22;17110;52.602;12.998;2022-08-04T12:47:34;36.40;62.10
30300;DHT22;17110;52.602;12.998;2022-08-04T12:50:03;36.50;62.30
30300;DHT22;17110;52.602;12.998;2022-08-04T12:52:32;36.50;60.10
30300;DHT22;17110;52.602;12.998;2022-08-04T12:54:58;36.50;61.60
30300;DHT22;17110;52.602;12.998;2022-08-04T12:57:24;36.40;62.40
30300;DHT22;17110;52.602;12.998;2022-08-04T12:59:51;36.30;62.20
30300;DHT22;17110;52.602;12.998;2022-08-04T13:02:32;36.30;61.90
30300;DHT22;17110;52.602;12.998;2022-08-04T13:05:04;36.10;60.30
30300;DHT22;17110;52.602;12.998;2022-08-04T13:07:39;36.20;60.70
30300;DHT22;17110;52.602;12.998;2022-08-04T13:10:15;36.20;60.50
30300;DHT22;17110;52.602;12.998;2022-08-04T13:12:49;36.00;61.30
30300;DHT22;17110;52.602;12.998;2022-08-04T13:15:19;36.20;62.60
30300;DHT22;17110;52.602;12.998;2022-08-04T13:17:55;36.20;62.30
30300;DHT22;17110;52.602;12.998;2022-08-04T13:20:29;36.30;61.30
30300;DHT22;17110;52.602;12.998;2022-08-04T13:25:29;36.80;60.80
30300;DHT22;17110;52.602;12.998;2022-08-04T13:27:57;36.90;60.80
30300;DHT22;17110;52.602;12.998;2022-08-04T13:30:24;36.90;59.70
30300;DHT22;17110;52.602;12.998;2022-08-04T13:32:57;37.00;59.20
30300;DHT22;17110;52.602;12.998;2022-08-04T13:35:25;37.00;58.90
30300;DHT22;17110;52.602;12.998;2022-08-04T13:37:51;37.00;59.10
30300;DHT22;17110;52.602;12.998;2022-08-04T13:40:21;37.00;60.10
30300;DHT22;17110;52.602;12.998;2022-08-04T13:42:50;36.90;59.00
30300;DHT22;17110;52.602;12.998;2022-08-04T13:45:20;36.90;59.50
30300;DHT22;17110;52.602;12.998;2022-08-04T13:47:48;36.80;58.70
30300;DHT22;17110;52.602;12.998;2022-08-04T13:50:30;36.80;59.60
30300;DHT22;17110;52.602;12.998;2022-08-04T13:52:59;36.80;58.60
30300;DHT22;17110;52.602;12.998;2022-08-04T13:58:00;36.80;58.30
30300;DHT22;17110;52.602;12.998;2022-08-04T14:00:51;36.80;60.10
30300;DHT22;17110;52.602;12.998;2022-08-04T14:03:25;36.80;59.20
30300;DHT22;17110;52.602;12.998;2022-08-04T14:06:14;36.70;58.30
30300;DHT22;17110;52.602;12.998;2022-08-04T14:08:57;36.70;57.80
30300;DHT22;17110;52.602;12.998;2022-08-04T14:11:36;36.60;57.30
30300;DHT22;17110;52.602;12.998;2022-08-04T14:14:14;36.60;57.90
30300;DHT22;17110;52.602;12.998;2022-08-04T14:16:55;36.60;57.60
30300;DHT22;17110;52.602;12.998;2022-08-04T14:19:21;36.70;58.00
30300;DHT22;17110;52.602;12.998;2022-08-04T14:21:47;36.60;57.80
30300;DHT22;17110;52.602;12.998;2022-08-04T14:24:23;36.50;57.80
30300;DHT22;17110;52.602;12.998;2022-08-04T14:26:50;36.50;58.40
30300;DHT22;17110;52.602;12.998;2022-08-04T14:29:17;36.60;58.10
30300;DHT22;17110;52.602;12.998;2022-08-04T14:31:47;36.70;59.00
30300;DHT22;17110;52.602;12.998;2022-08-04T14:34:31;36.80;56.80
30300;DHT22;17110;52.602;12.998;2022-08-04T14:37:07;36.70;57.10
30300;DHT22;17110;52.602;12.998;2022-08-04T14:42:06;36.70;57.50
30300;DHT22;17110;52.602;12.998;2022-08-04T14:44:52;36.60;57.60
30300;DHT22;17110;52.602;12.998;2022-08-04T14:47:18;36.60;57.30
30300;DHT22;17110;52.602;12.998;2022-08-04T14:49:53;36.60;57.70
30300;DHT22;17110;52.602;12.998;2022-08-04T14:52:24;36.50;57.20
30300;DHT22;17110;52.602;12.998;2022-08-04T14:54:50;36.60;58.50
30300;DHT22;17110;52.602;12.998;2022-08-04T14:57:16;36.60;56.80
30300;DHT22;17110;52.602;12.998;2022-08-04T14:59:43;36.60;57.50
30300;DHT22;17110;52.602;12.998;2022-08-04T15:02:11;36.40;58.30
30300;DHT22;17110;52.602;12.998;2022-08-04T15:04:38;36.50;57.40
30300;DHT22;17110;52.602;12.998;2022-08-04T15:07:05;36.50;58.10
30300;DHT22;17110;52.602;12.998;2022-08-04T15:09:31;36.30;57.50
30300;DHT22;17110;52.602;12.998;2022-08-04T15:11:57;36.10;58.80
30300;DHT22;17110;52.602;12.998;2022-08-04T15:14:26;36.00;57.60
30300;DHT22;17110;52.602;12.998;2022-08-04T15:16:57;36.10;56.10
30300;DHT22;17110;52.602;12.998;2022-08-04T15:19:23;36.10;58.60
30300;DHT22;17110;52.602;12.998;2022-08-04T15:21:49;36.10;58.10
30300;DHT22;17110;52.602;12.998;2022-08-04T15:24:15;36.20;57.90
30300;DHT22;17110;52.602;12.998;2022-08-04T15:26:49;36.10;58.60
30300;DHT22;17110;52.602;12.998;2022-08-04T15:29:23;36.20;57.90
30300;DHT22;17110;52.602;12.998;2022-08-04T15:31:52;36.20;57.70
30300;DHT22;17110;52.602;12.998;2022-08-04T15:34:19;36.20;58.30
30300;DHT22;17110;52.602;12.998;2022-08-04T15:36:52;36.10;57.90
30300;DHT22;17110;52.602;12.998;2022-08-04T15:39:37;36.00;58.00
30300;DHT22;17110;52.602;12.998;2022-08-04T15:47:30;36.00;56.60
30300;DHT22;17110;52.602;12.998;2022-08-04T15:50:05;36.00;58.30
30300;DHT22;17110;52.602;12.998;2022-08-04T15:55:32;35.90;59.50
30300;DHT22;17110;52.602;12.998;2022-08-04T15:58:01;35.70;58.10
30300;DHT22;17110;52.602;12.998;2022-08-04T16:00:33;35.80;58.00
30300;DHT22;17110;52.602;12.998;2022-08-04T16:19:10;35.70;59.30
30300;DHT22;17110;52.602;12.998;2022-08-04T16:21:59;35.60;58.80
30300;DHT22;17110;52.602;12.998;2022-08-04T16:24:40;35.30;59.60
30300;DHT22;17110;52.602;12.998;2022-08-04T16:27:08;35.10;59.90
30300;DHT22;17110;52.602;12.998;2022-08-04T16:29:39;35.10;59.70
30300;DHT22;17110;52.602;12.998;2022-08-04T16:34:41;35.10;60.00
30300;DHT22;17110;52.602;12.998;2022-08-04T16:37:10;35.10;60.50
30300;DHT22;17110;52.602;12.998;2022-08-04T16:39:37;35.20;61.10
30300;DHT22;17110;52.602;12.998;2022-08-04T16:42:29;35.10;60.40
30300;DHT22;17110;52.602;12.998;2022-08-04T16:50:13;35.10;60.20
30300;DHT22;17110;52.602;12.998;2022-08-04T16:52:44;35.00;61.30
30300;DHT22;17110;52.602;12.998;2022-08-04T16:55:17;35.00;61.30
30300;DHT22;17110;52.602;12.998;2022-08-04T16:57:49;34.90;61.40
30300;DHT22;17110;52.602;12.998;2022-08-04T17:00:16;34.80;61.00
30300;DHT22;17110;52.602;12.998;2022-08-04T17:02:43;34.70;61.00
30300;DHT22;17110;52.602;12.998;2022-08-04T17:05:23;34.70;61.20
30300;DHT22;17110;52.602;12.998;2022-08-04T17:07:54;34.70;62.50
30300;DHT22;17110;52.602;12.998;2022-08-04T17:12:59;34.50;61.70
30300;DHT22;17110;52.602;12.998;2022-08-04T17:15:25;34.40;61.60
30300;DHT22;17110;52.602;12.998;2022-08-04T17:17:51;34.40;62.30
30300;DHT22;17110;52.602;12.998;2022-08-04T17:20:40;34.50;63.00
30300;DHT22;17110;52.602;12.998;2022-08-04T17:23:25;34.50;62.60
30300;DHT22;17110;52.602;12.998;2022-08-04T17:25:57;34.30;63.30
30300;DHT22;17110;52.602;12.998;2022-08-04T17:28:23;34.30;63.50
30300;DHT22;17110;52.602;12.998;2022-08-04T17:30:49;34.20;63.60
30300;DHT22;17110;52.602;12.998;2022-08-04T17:33:15;34.20;63.70
30300;DHT22;17110;52.602;12.998;2022-08-04T17:35:43;34.10;64.30
30300;DHT22;17110;52.602;12.998;2022-08-04T17:38:09;34.00;63.70
30300;DHT22;17110;52.602;12.998;2022-08-04T17:40:49;33.90;63.70
30300;DHT22;17110;52.602;12.998;2022-08-04T17:43:15;33.90;64.40
30300;DHT22;17110;52.602;12.998;2022-08-04T17:45:41;33.80;65.00
30300;DHT22;17110;52.602;12.998;2022-08-04T17:48:17;33.60;65.30
30300;DHT22;17110;52.602;12.998;2022-08-04T17:50:43;33.60;65.80
30300;DHT22;17110;52.602;12.998;2022-08-04T17:53:08;33.50;66.10
30300;DHT22;17110;52.602;12.998;2022-08-04T17:55:52;33.40;67.00
30300;DHT22;17110;52.602;12.998;2022-08-04T17:58:20;33.30;66.90
30300;DHT22;17110;52.602;12.998;2022-08-04T18:00:48;33.10;67.00
30300;DHT22;17110;52.602;12.998;2022-08-04T18:03:26;33.00;67.10
30300;DHT22;17110;52.602;12.998;2022-08-04T18:05:53;32.80;67.70
30300;DHT22;17110;52.602;12.998;2022-08-04T18:08:26;32.70;68.20
30300;DHT22;17110;52.602;12.998;2022-08-04T18:10:53;32.60;69.00
30300;DHT22;17110;52.602;12.998;2022-08-04T18:13:19;32.40;72.60
30300;DHT22;17110;52.602;12.998;2022-08-04T18:15:45;32.20;73.20
30300;DHT22;17110;52.602;12.998;2022-08-04T18:18:19;32.00;75.20
30300;DHT22;17110;52.602;12.998;2022-08-04T18:20:45;31.70;75.70
30300;DHT22;17110;52.602;12.998;2022-08-04T18:23:12;31.50;75.90
30300;DHT22;17110;52.602;12.998;2022-08-04T18:25:38;31.40;77.50
30300;DHT22;17110;52.602;12.998;2022-08-04T18:28:08;31.20;78.70
30300;DHT22;17110;52.602;12.998;2022-08-04T18:30:35;31.00;79.20
30300;DHT22;17110;52.602;12.998;2022-08-04T18:33:02;30.80;80.10
30300;DHT22;17110;52.602;12.998;2022-08-04T18:35:28;30.60;80.90
30300;DHT22;17110;52.602;12.998;2022-08-04T18:37:54;30.40;81.80
30300;DHT22;17110;52.602;12.998;2022-08-04T18:40:20;30.30;82.80
30300;DHT22;17110;52.602;12.998;2022-08-04T18:42:46;30.10;83.20
30300;DHT22;17110;52.602;12.998;2022-08-04T18:45:12;29.90;83.50
30300;DHT22;17110;52.602;12.998;2022-08-04T18:47:39;29.80;83.40
30300;DHT22;17110;52.602;12.998;2022-08-04T18:50:05;29.60;84.10
30300;DHT22;17110;52.602;12.998;2022-08-04T18:52:31;29.50;84.60
30300;DHT22;17110;52.602;12.998;2022-08-04T18:54:57;29.40;85.70
30300;DHT22;17110;52.602;12.998;2022-08-04T18:57:25;29.20;85.50
30300;DHT22;17110;52.602;12.998;2022-08-04T18:59:52;29.10;85.80
30300;DHT22;17110;52.602;12.998;2022-08-04T19:02:20;29.00;86.30
30300;DHT22;17110;52.602;12.998;2022-08-04T19:04:45;28.90;87.80
30300;DHT22;17110;52.602;12.998;2022-08-04T19:07:11;28.70;89.50
30300;DHT22;17110;52.602;12.998;2022-08-04T19:09:40;28.60;90.10
30300;DHT22;17110;52.602;12.998;2022-08-04T19:12:06;28.50;89.70
30300;DHT22;17110;52.602;12.998;2022-08-04T19:14:32;28.40;89.70
30300;DHT22;17110;52.602;12.998;2022-08-04T19:16:58;28.30;90.60
30300;DHT22;17110;52.602;12.998;2022-08-04T19:19:23;28.20;90.30
30300;DHT22;17110;52.602;12.998;2022-08-04T19:21:49;28.10;90.30
30300;DHT22;17110;52.602;12.998;2022-08-04T19:24:15;28.10;91.00
30300;DHT22;17110;52.602;12.998;2022-08-04T19:26:41;28.10;91.20
30300;DHT22;17110;52.602;12.998;2022-08-04T19:29:06;28.00;90.70
30300;DHT22;17110;52.602;12.998;2022-08-04T19:31:32;27.90;90.70
30300;DHT22;17110;52.602;12.998;2022-08-04T19:33:58;27.80;91.50
30300;DHT22;17110;52.602;12.998;2022-08-04T19:36:25;27.70;91.40
30300;DHT22;17110;52.602;12.998;2022-08-04T19:39:03;27.60;91.00
30300;DHT22;17110;52.602;12.998;2022-08-04T19:41:29;27.60;91.00
30300;DHT22;17110;52.602;12.998;2022-08-04T19:43:58;27.50;91.50
30300;DHT22;17110;52.602;12.998;2022-08-04T19:46:24;27.50;91.30
30300;DHT22;17110;52.602;12.998;2022-08-04T19:48:52;27.40;91.40
30300;DHT22;17110;52.602;12.998;2022-08-04T19:51:18;27.30;91.30
30300;DHT22;17110;52.602;12.998;2022-08-04T19:53:46;27.30;91.40
30300;DHT22;17110;52.602;12.998;2022-08-04T19:56:11;27.20;91.90
30300;DHT22;17110;52.602;12.998;2022-08-04T19:58:37;27.10;93.30
30300;DHT22;17110;52.602;12.998;2022-08-04T20:01:03;26.90;93.00
30300;DHT22;17110;52.602;12.998;2022-08-04T20:03:28;26.70;92.10
30300;DHT22;17110;52.602;12.998;2022-08-04T20:05:54;26.70;91.50
30300;DHT22;17110;52.602;12.998;2022-08-04T20:08:20;26.80;91.00
30300;DHT22;17110;52.602;12.998;2022-08-04T20:10:48;26.80;90.70
30300;DHT22;17110;52.602;12.998;2022-08-04T20:13:15;27.00;90.00
30300;DHT22;17110;52.602;12.998;2022-08-04T20:15:41;27.00;90.30
30300;DHT22;17110;52.602;12.998;2022-08-04T20:18:07;27.20;90.40
30300;DHT22;17110;52.602;12.998;2022-08-04T20:20:32;27.20;90.80
30300;DHT22;17110;52.602;12.998;2022-08-04T20:22:58;27.20;90.40
30300;DHT22;17110;52.602;12.998;2022-08-04T20:25:24;27.20;90.20
30300;DHT22;17110;52.602;12.998;2022-08-04T20:27:49;27.30;90.20
30300;DHT22;17110;52.602;12.998;2022-08-04T20:30:15;27.30;90.50
30300;DHT22;17110;52.602;12.998;2022-08-04T20:32:40;27.30;90.40
30300;DHT22;17110;52.602;12.998;2022-08-04T20:35:07;27.20;90.30
30300;DHT22;17110;52.602;12.998;2022-08-04T20:37:40;27.10;91.30
30300;DHT22;17110;52.602;12.998;2022-08-04T20:40:06;27.10;91.40
30300;DHT22;17110;52.602;12.998;2022-08-04T20:42:32;27.00;90.70
30300;DHT22;17110;52.602;12.998;2022-08-04T20:44:57;26.90;90.70
30300;DHT22;17110;52.602;12.998;2022-08-04T20:47:23;26.80;92.00
30300;DHT22;17110;52.602;12.998;2022-08-04T20:49:50;26.70;92.30
30300;DHT22;17110;52.602;12.998;2022-08-04T20:52:16;26.60;92.20
30300;DHT22;17110;52.602;12.998;2022-08-04T20:54:42;26.50;92.00
30300;DHT22;17110;52.602;12.998;2022-08-04T20:57:08;26.50;92.10
30300;DHT22;17110;52.602;12.998;2022-08-04T20:59:34;26.50;91.80
30300;DHT22;17110;52.602;12.998;2022-08-04T21:02:01;26.40;93.30
30300;DHT22;17110;52.602;12.998;2022-08-04T21:04:27;26.30;93.40
30300;DHT22;17110;52.602;12.998;2022-08-04T21:07:01;26.30;93.80
30300;DHT22;17110;52.602;12.998;2022-08-04T21:09:28;26.30;93.10
30300;DHT22;17110;52.602;12.998;2022-08-04T21:11:54;26.30;92.90
30300;DHT22;17110;52.602;12.998;2022-08-04T21:14:20;26.20;93.90
30300;DHT22;17110;52.602;12.998;2022-08-04T21:16:45;26.10;93.90
30300;DHT22;17110;52.602;12.998;2022-08-04T21:19:11;26.10;94.40
30300;DHT22;17110;52.602;12.998;2022-08-04T21:21:38;26.00;95.30
30300;DHT22;17110;52.602;12.998;2022-08-04T21:24:04;26.00;95.20
30300;DHT22;17110;52.602;12.998;2022-08-04T21:26:30;25.90;95.10
30300;DHT22;17110;52.602;12.998;2022-08-04T21:28:56;25.90;95.10
30300;DHT22;17110;52.602;12.998;2022-08-04T21:31:21;25.80;94.80
30300;DHT22;17110;52.602;12.998;2022-08-04T21:33:47;25.80;96.00
30300;DHT22;17110;52.602;12.998;2022-08-04T21:36:13;25.80;96.40
30300;DHT22;17110;52.602;12.998;2022-08-04T21:38:39;25.80;96.60
30300;DHT22;17110;52.602;12.998;2022-08-04T21:41:05;25.80;96.70
30300;DHT22;17110;52.602;12.998;2022-08-04T21:43:31;25.70;96.20
30300;DHT22;17110;52.602;12.998;2022-08-04T21:45:56;25.70;96.40
30300;DHT22;17110;52.602;12.998;2022-08-04T21:48:23;25.60;96.80
30300;DHT22;17110;52.602;12.998;2022-08-04T21:50:49;25.60;96.50
30300;DHT22;17110;52.602;12.998;2022-08-04T21:53:16;25.60;96.40
30300;DHT22;17110;52.602;12.998;2022-08-04T21:55:41;25.50;96.60
30300;DHT22;17110;52.602;12.998;2022-08-04T21:58:07;25.50;96.50